createdAt,value
2018-03-22T00:00:07.205Z,27.25
2018-03-22T00:02:35.504Z,29.37
2018-03-22T00:05:07.748Z,31.25
2018-03-22T00:07:36.263Z,27.85
2018-03-22T00:10:06.309Z,30.73
2018-03-22T00:12:34.584Z,29.12
2018-03-22T00:15:08.683Z,29.92
2018-03-22T00:17:36.960Z,33.75
2018-03-22T00:20:06.481Z,30.30
2018-03-22T00:22:38.839Z,29.55
2018-03-22T00:25:07.493Z,29.37
2018-03-22T00:27:35.801Z,29.52
2018-03-22T00:30:07.853Z,33.22
2018-03-22T00:32:36.209Z,30.27
2018-03-22T00:35:06.329Z,27.87
2018-03-22T00:37:34.643Z,29.75
2018-03-22T00:40:06.690Z,30.05
2018-03-22T00:42:34.974Z,29.02
2018-03-22T00:45:07.116Z,31.83
2018-03-22T00:47:35.427Z,28.25
2018-03-22T00:50:07.557Z,34.30
2018-03-22T00:52:35.877Z,33.17
2018-03-22T00:55:06.009Z,30.30
2018-03-22T00:57:34.314Z,33.50
2018-03-22T01:00:06.326Z,33.42
2018-03-22T01:02:35.163Z,32.25
2018-03-22T01:05:06.892Z,32.35
2018-03-22T01:07:35.701Z,29.67
2018-03-22T01:10:07.584Z,30.58
2018-03-22T01:12:35.886Z,33.25
2018-03-22T01:15:07.096Z,29.65
2018-03-22T01:17:35.429Z,34.50
2018-03-22T01:20:06.670Z,35.28
2018-03-22T01:22:35.286Z,32.30
2018-03-22T01:25:07.236Z,32.42
2018-03-22T01:27:35.897Z,28.60
2018-03-22T01:33:13.956Z,33.42
2018-03-22T01:35:42.740Z,25.85
2018-03-22T01:38:11.028Z,25.35
2018-03-22T01:40:39.317Z,25.15
2018-03-22T01:43:08.052Z,22.10
2018-03-22T01:45:36.318Z,25.90
2018-03-22T01:48:04.626Z,25.40
2018-03-22T01:50:32.999Z,24.00
2018-03-22T01:53:12.845Z,23.00
2018-03-22T01:55:41.143Z,24.17
2018-03-22T01:58:09.424Z,23.48
2018-03-22T02:00:37.911Z,22.62
2018-03-22T02:03:06.193Z,23.77
2018-03-22T02:05:34.546Z,19.00
2018-03-22T02:08:03.397Z,26.55
2018-03-22T02:10:32.249Z,23.60
2018-03-22T02:13:00.837Z,20.88
2018-03-22T02:15:29.356Z,24.73
2018-03-22T02:17:57.656Z,19.95
2018-03-22T02:20:25.949Z,22.52
2018-03-22T02:22:54.242Z,23.40
2018-03-22T02:25:22.717Z,21.10
2018-03-22T02:27:51.300Z,20.15
2018-03-22T02:30:19.616Z,23.30
2018-03-22T02:32:47.910Z,19.73
2018-03-22T02:35:16.365Z,20.58
2018-03-22T02:37:45.279Z,25.27
2018-03-22T02:40:13.574Z,18.35
2018-03-22T02:42:41.869Z,21.33
2018-03-22T02:45:10.187Z,22.35
2018-03-22T02:47:38.478Z,20.35
2018-03-22T02:50:06.771Z,20.15
2018-03-22T02:52:35.093Z,20.98
2018-03-22T02:55:06.848Z,21.60
2018-03-22T02:57:35.326Z,22.62
2018-03-22T03:00:07.190Z,19.00
2018-03-22T03:02:35.534Z,22.02
2018-03-22T03:05:07.642Z,19.65
2018-03-22T03:07:36.056Z,20.02
2018-03-22T03:10:07.213Z,23.67
2018-03-22T03:12:35.676Z,24.95
2018-03-22T03:15:07.710Z,22.27
2018-03-22T03:17:36.196Z,21.02
2018-03-22T03:20:06.101Z,22.55
2018-03-22T03:22:34.415Z,20.62
2018-03-22T03:25:05.949Z,22.87
2018-03-22T03:27:34.409Z,22.75
2018-03-22T03:30:07.734Z,22.67
2018-03-22T03:32:36.028Z,23.27
2018-03-22T03:35:07.876Z,24.52
2018-03-22T03:37:36.168Z,21.30
2018-03-22T03:40:07.642Z,20.17
2018-03-22T03:42:36.420Z,23.00
2018-03-22T03:45:08.225Z,22.83
2018-03-22T03:47:36.527Z,21.98
2018-03-22T03:50:06.551Z,22.25
2018-03-22T03:52:35.231Z,20.77
2018-03-22T03:55:06.975Z,21.75
2018-03-22T03:57:35.272Z,23.30
2018-03-22T04:00:10.051Z,22.75
2018-03-22T04:02:38.360Z,23.40
2018-03-22T04:05:06.896Z,21.67
2018-03-22T04:07:35.189Z,22.90
2018-03-22T04:10:06.713Z,22.02
2018-03-22T04:12:35.497Z,20.92
2018-03-22T04:15:07.302Z,23.27
2018-03-22T04:17:35.923Z,21.42
2018-03-22T04:20:07.785Z,22.67
2018-03-22T04:22:36.068Z,22.62
2018-03-22T04:25:07.380Z,22.42
2018-03-22T04:27:35.968Z,23.58
2018-03-22T04:30:08.237Z,24.23
2018-03-22T04:32:36.548Z,23.80
2018-03-22T04:35:08.255Z,25.35
2018-03-22T04:37:36.960Z,21.67
2018-03-22T04:40:06.805Z,20.98
2018-03-22T04:42:35.163Z,25.10
2018-03-22T04:45:07.025Z,25.02
2018-03-22T04:47:35.314Z,26.05
2018-03-22T04:50:06.529Z,24.87
2018-03-22T04:52:35.540Z,22.83
2018-03-22T04:55:07.281Z,24.52
2018-03-22T04:57:35.837Z,22.33
2018-03-22T05:00:07.770Z,25.60
2018-03-22T05:02:36.065Z,22.77
2018-03-22T05:05:07.246Z,23.05
2018-03-22T05:07:35.556Z,22.60
2018-03-22T05:10:06.633Z,28.08
2018-03-22T05:12:34.964Z,24.52
2018-03-22T05:15:06.306Z,25.88
2018-03-22T05:17:34.618Z,24.80
2018-03-22T05:20:06.052Z,22.65
2018-03-22T05:22:34.393Z,24.80
2018-03-22T05:25:06.009Z,21.05
2018-03-22T05:27:34.257Z,23.58
2018-03-22T05:30:05.695Z,21.33
2018-03-22T05:32:33.985Z,24.45
2018-03-22T05:35:05.403Z,22.35
2018-03-22T05:37:33.825Z,22.35
2018-03-22T05:40:08.509Z,24.80
2018-03-22T05:42:36.800Z,20.85
2018-03-22T05:45:08.744Z,19.62
2018-03-22T05:47:37.224Z,22.27
2018-03-22T05:50:07.500Z,19.92
2018-03-22T05:52:36.168Z,22.05
2018-03-22T05:55:08.215Z,20.48
2018-03-22T05:57:36.598Z,18.87
2018-03-22T06:00:08.724Z,22.13
2018-03-22T06:02:37.021Z,20.00
2018-03-22T06:05:06.077Z,19.08
2018-03-22T06:07:34.392Z,21.90
2018-03-22T06:10:06.568Z,20.45
2018-03-22T06:12:34.885Z,21.52
2018-03-22T06:15:06.414Z,20.70
2018-03-22T06:17:35.048Z,18.67
2018-03-22T06:20:06.816Z,23.08
2018-03-22T06:22:35.122Z,19.58
2018-03-22T06:25:07.049Z,18.77
2018-03-22T06:27:35.382Z,17.90
2018-03-22T06:30:06.562Z,20.37
2018-03-22T06:32:34.888Z,21.42
2018-03-22T06:35:07.026Z,19.37
2018-03-22T06:37:35.561Z,19.67
2018-03-22T06:40:05.762Z,19.65
2018-03-22T06:42:34.281Z,22.40
2018-03-22T06:45:05.645Z,21.90
2018-03-22T06:47:34.192Z,25.80
2018-03-22T06:50:08.352Z,24.33
2018-03-22T06:52:37.154Z,26.58
2018-03-22T06:55:06.142Z,24.40
2018-03-22T06:57:34.477Z,26.52
2018-03-22T07:00:06.899Z,25.92
2018-03-22T07:02:35.274Z,24.42
2018-03-22T07:05:07.108Z,29.05
2018-03-22T07:07:35.388Z,28.00
2018-03-22T07:10:06.737Z,33.00
2018-03-22T07:12:35.562Z,28.35
2018-03-22T07:15:08.009Z,32.72
2018-03-22T07:17:36.305Z,34.65
2018-03-22T07:20:06.303Z,30.90
2018-03-22T07:22:34.884Z,35.90
2018-03-22T07:25:06.466Z,34.67
2018-03-22T07:27:34.754Z,30.92
2018-03-22T07:30:07.057Z,32.55
2018-03-22T07:32:35.364Z,31.75
2018-03-22T07:35:07.587Z,32.00
2018-03-22T07:37:35.957Z,35.38
2018-03-22T07:40:06.009Z,33.25
2018-03-22T07:42:34.497Z,33.75
2018-03-22T07:45:09.759Z,38.58
2018-03-22T07:47:38.109Z,33.65
2018-03-22T07:50:06.556Z,37.03
2018-03-22T07:52:34.859Z,37.50
2018-03-22T07:55:06.823Z,37.15
2018-03-22T07:57:35.266Z,39.60
2018-03-22T08:00:07.301Z,42.13
2018-03-22T08:02:35.922Z,48.28
2018-03-22T08:05:07.373Z,47.50
2018-03-22T08:07:35.650Z,44.25
2018-03-22T08:10:05.752Z,43.17
2018-03-22T08:12:34.241Z,41.83
2018-03-22T08:15:09.152Z,42.50
2018-03-22T08:17:37.461Z,45.15
2018-03-22T08:20:06.026Z,46.45
2018-03-22T08:22:34.302Z,42.97
2018-03-22T08:25:06.057Z,45.45
2018-03-22T08:27:34.345Z,44.08
2018-03-22T08:30:07.157Z,49.55
2018-03-22T08:32:35.479Z,46.10
2018-03-22T08:35:06.913Z,53.78
2018-03-22T08:37:35.207Z,47.55
2018-03-22T08:40:07.802Z,47.00
2018-03-22T08:42:36.878Z,43.60
2018-03-22T08:45:06.193Z,42.88
2018-03-22T08:47:34.457Z,40.78
2018-03-22T08:50:06.275Z,42.88
2018-03-22T08:52:34.812Z,43.65
2018-03-22T08:55:06.454Z,44.25
2018-03-22T08:57:34.765Z,41.97
2018-03-22T09:00:06.080Z,37.47
2018-03-22T09:02:34.641Z,36.60
2018-03-22T09:05:07.143Z,40.80
2018-03-22T09:07:35.945Z,41.58
2018-03-22T09:10:05.809Z,38.50
2018-03-22T09:12:34.120Z,41.05
2018-03-22T09:15:05.758Z,40.20
2018-03-22T09:17:34.067Z,38.10
2018-03-22T09:20:09.421Z,37.33
2018-03-22T09:22:37.741Z,41.58
2018-03-22T09:25:06.043Z,34.15
2018-03-22T09:27:34.353Z,34.55
2018-03-22T09:30:08.305Z,32.17
2018-03-22T09:32:37.010Z,31.73
2018-03-22T09:35:06.112Z,32.83
2018-03-22T09:37:34.771Z,34.03
2018-03-22T09:40:05.833Z,31.00
2018-03-22T09:42:34.126Z,32.37
2018-03-22T09:45:06.109Z,29.43
2018-03-22T09:47:34.984Z,28.73
2018-03-22T09:50:06.742Z,28.35
2018-03-22T09:52:35.105Z,36.13
2018-03-22T09:55:05.923Z,31.03
2018-03-22T09:57:34.256Z,30.90
2018-03-22T10:00:09.775Z,30.88
2018-03-22T10:02:38.060Z,32.25
2018-03-22T10:05:06.373Z,36.83
2018-03-22T10:07:34.735Z,30.40
2018-03-22T10:10:06.680Z,33.40
2018-03-22T10:12:34.964Z,34.78
2018-03-22T10:15:05.890Z,32.60
2018-03-22T10:17:34.194Z,30.62
2018-03-22T10:20:05.693Z,28.70
2018-03-22T10:22:34.239Z,29.20
2018-03-22T10:25:05.966Z,27.53
2018-03-22T10:27:34.272Z,26.63
2018-03-22T10:30:09.459Z,29.42
2018-03-22T10:32:37.765Z,26.70
2018-03-22T10:35:06.665Z,29.67
2018-03-22T10:37:34.971Z,29.03
2018-03-22T10:40:06.716Z,26.93
2018-03-22T10:42:35.034Z,26.75
2018-03-22T10:45:07.145Z,26.10
2018-03-22T10:47:35.445Z,26.03
2018-03-22T10:50:07.857Z,130.00
2018-03-22T10:52:36.322Z,20.47
2018-03-22T10:55:06.676Z,62.37
2018-03-22T10:57:35.014Z,35.87
2018-03-22T11:00:05.975Z,17.23
2018-03-22T11:02:39.952Z,24.17
2018-03-22T11:05:08.255Z,26.67
2018-03-22T11:07:36.546Z,19.63
2018-03-22T11:10:06.697Z,17.03
2018-03-22T11:12:35.152Z,17.30
2018-03-22T11:15:05.919Z,17.07
2018-03-22T11:17:34.308Z,15.10
2018-03-22T11:20:09.282Z,13.03
2018-03-22T11:22:37.650Z,13.70
2018-03-22T11:25:07.029Z,11.47
2018-03-22T11:27:35.305Z,11.40
2018-03-22T11:30:05.988Z,13.43
2018-03-22T11:32:34.265Z,10.67
2018-03-22T11:35:06.027Z,12.23
2018-03-22T11:37:34.298Z,10.70
2018-03-22T11:40:06.299Z,12.60
2018-03-22T11:42:34.730Z,11.30
2018-03-22T11:45:09.578Z,11.50
2018-03-22T11:47:37.886Z,10.80
2018-03-22T11:50:06.186Z,13.23
2018-03-22T11:52:34.752Z,11.13
2018-03-22T11:55:10.120Z,11.70
2018-03-22T11:57:38.398Z,13.03
2018-03-22T12:00:06.709Z,12.77
2018-03-22T12:02:35.037Z,13.93
2018-03-22T12:05:06.637Z,13.67
2018-03-22T12:07:34.951Z,14.93
2018-03-22T12:10:08.197Z,13.57
2018-03-22T12:12:36.524Z,13.90
2018-03-22T12:15:06.648Z,14.83
2018-03-22T12:17:35.206Z,14.93
2018-03-22T12:20:06.126Z,15.03
2018-03-22T12:22:34.986Z,13.53
2018-03-22T12:25:06.017Z,15.27
2018-03-22T12:27:35.261Z,16.67
2018-03-22T12:30:07.066Z,15.97
2018-03-22T12:32:36.718Z,16.87
2018-03-22T12:35:05.007Z,17.33
2018-03-22T12:37:33.318Z,24.80
2018-03-22T12:40:08.577Z,17.00
2018-03-22T12:42:36.857Z,18.30
2018-03-22T12:45:06.784Z,18.50
2018-03-22T12:47:35.061Z,15.23
2018-03-22T12:50:06.313Z,18.50
2018-03-22T12:52:35.362Z,16.27
2018-03-22T12:55:06.890Z,17.37
2018-03-22T12:57:35.171Z,16.47
2018-03-22T13:00:06.406Z,15.30
2018-03-22T13:02:34.768Z,13.60
2018-03-22T13:05:06.815Z,14.20
2018-03-22T13:07:35.311Z,12.93
2018-03-22T13:10:07.261Z,13.90
2018-03-22T13:12:35.648Z,12.80
2018-03-22T13:15:07.606Z,14.23
2018-03-22T13:17:35.896Z,14.23
2018-03-22T13:20:08.036Z,15.50
2018-03-22T13:22:36.317Z,14.50
2018-03-22T13:25:07.553Z,13.27
2018-03-22T13:27:35.836Z,12.27
2018-03-22T13:30:07.236Z,13.20
2018-03-22T13:32:36.017Z,13.23
2018-03-22T13:35:08.054Z,12.77
2018-03-22T13:37:36.515Z,12.87
2018-03-22T13:40:07.756Z,14.13
2018-03-22T13:42:36.046Z,14.63
2018-03-22T13:45:07.822Z,15.60
2018-03-22T13:47:36.117Z,15.13
2018-03-22T13:50:06.243Z,15.03
2018-03-22T13:52:34.546Z,17.33
2018-03-22T13:55:05.953Z,17.97
2018-03-22T13:57:34.451Z,18.40
2018-03-22T14:00:09.669Z,18.00
2018-03-22T14:02:38.506Z,17.57
2018-03-22T14:05:06.859Z,18.10
2018-03-22T14:07:35.082Z,19.83
2018-03-22T14:10:06.332Z,19.33
2018-03-22T14:12:34.876Z,18.67
2018-03-22T14:15:06.121Z,17.70
2018-03-22T14:17:34.433Z,17.30
2018-03-22T14:20:11.387Z,17.87
2018-03-22T14:22:39.690Z,19.63
2018-03-22T14:25:07.993Z,19.30
2018-03-22T14:27:36.285Z,18.57
2018-03-22T14:30:06.179Z,18.33
2018-03-22T14:32:34.474Z,19.13
2018-03-22T14:35:09.492Z,19.93
2018-03-22T14:37:37.781Z,19.07
2018-03-22T14:40:06.246Z,17.70
2018-03-22T14:42:34.537Z,16.50
2018-03-22T14:45:09.682Z,18.67
2018-03-22T14:47:37.978Z,15.63
2018-03-22T14:50:06.264Z,16.20
2018-03-22T14:52:34.570Z,15.30
2018-03-22T14:55:09.467Z,14.50
2018-03-22T14:57:38.105Z,15.67
2018-03-22T15:00:06.642Z,18.83
2018-03-22T15:02:34.960Z,18.63
2018-03-22T15:05:06.139Z,15.00
2018-03-22T15:07:34.449Z,15.97
2018-03-22T15:10:05.972Z,14.67
2018-03-22T15:12:34.879Z,15.50
2018-03-22T15:15:06.247Z,14.43
2018-03-22T15:17:34.588Z,15.93
2018-03-22T15:20:09.776Z,20.13
2018-03-22T15:22:38.085Z,17.10
2018-03-22T15:25:06.436Z,24.43
2018-03-22T15:27:35.007Z,18.30
2018-03-22T15:30:07.029Z,18.17
2018-03-22T15:32:35.319Z,17.43
2018-03-22T15:35:07.282Z,19.03
2018-03-22T15:37:35.583Z,17.53
2018-03-22T15:40:07.752Z,17.03
2018-03-22T15:42:36.286Z,19.30
2018-03-22T15:45:07.511Z,19.20
2018-03-22T15:47:35.852Z,19.80
2018-03-22T15:50:07.672Z,16.33
2018-03-22T15:52:36.000Z,17.87
2018-03-22T15:55:07.992Z,16.70
2018-03-22T15:57:36.289Z,16.17
2018-03-22T16:00:09.353Z,16.57
2018-03-22T16:02:37.700Z,17.10
2018-03-22T16:05:06.846Z,18.10
2018-03-22T16:07:35.185Z,17.40
2018-03-22T16:10:06.515Z,18.60
2018-03-22T16:12:34.824Z,18.47
2018-03-22T16:15:06.358Z,20.67
2018-03-22T16:17:34.672Z,20.10
2018-03-22T16:20:09.779Z,25.73
2018-03-22T16:22:38.070Z,23.23
2018-03-22T16:25:06.359Z,22.07
2018-03-22T16:27:34.907Z,25.27
2018-03-22T16:30:06.266Z,25.27
2018-03-22T16:32:34.568Z,25.37
2018-03-22T16:35:06.312Z,28.47
2018-03-22T16:37:34.580Z,28.00
2018-03-22T16:40:06.188Z,31.23
2018-03-22T16:42:34.713Z,30.73
2018-03-22T16:45:06.511Z,34.97
2018-03-22T16:47:34.806Z,34.93
2018-03-22T16:50:06.608Z,38.53
2018-03-22T16:52:34.881Z,38.80
2018-03-22T16:55:07.031Z,36.97
2018-03-22T16:57:35.313Z,35.87
2018-03-22T17:00:06.689Z,30.37
2018-03-22T17:02:34.949Z,32.60
2018-03-22T17:05:09.041Z,34.83
2018-03-22T17:07:37.310Z,33.73
2018-03-22T17:10:06.646Z,34.53
2018-03-22T17:12:35.178Z,30.73
2018-03-22T17:15:07.243Z,36.10
2018-03-22T17:17:35.536Z,31.83
2018-03-22T17:20:06.498Z,34.10
2018-03-22T17:22:35.351Z,32.93
2018-03-22T17:25:07.194Z,35.23
2018-03-22T17:27:35.708Z,30.43
2018-03-22T17:30:07.789Z,30.57
2018-03-22T17:32:36.355Z,36.63
2018-03-22T17:35:06.299Z,34.10
2018-03-22T17:37:34.611Z,31.80
2018-03-22T17:40:06.091Z,33.83
2018-03-22T17:42:34.411Z,37.03
2018-03-22T17:45:06.282Z,35.10
2018-03-22T17:47:35.127Z,40.70
2018-03-22T17:50:06.354Z,38.13
2018-03-22T17:52:34.664Z,39.73
2018-03-22T17:55:06.517Z,36.57
2018-03-22T17:57:34.881Z,35.30
2018-03-22T18:00:09.027Z,41.13
2018-03-22T18:02:37.381Z,38.27
2018-03-22T18:05:06.697Z,37.33
2018-03-22T18:07:35.018Z,38.00
2018-03-22T18:10:06.405Z,35.53
2018-03-22T18:12:34.677Z,38.60
2018-03-22T18:15:06.812Z,43.00
2018-03-22T18:17:39.530Z,41.07
2018-03-22T18:20:07.948Z,39.97
2018-03-22T18:22:36.202Z,43.97
2018-03-22T18:25:07.844Z,54.77
2018-03-22T18:27:36.140Z,52.93
2018-03-22T18:30:07.809Z,57.63
2018-03-22T18:32:36.084Z,55.53
2018-03-22T18:35:08.186Z,62.60
2018-03-22T18:37:36.475Z,53.60
2018-03-22T18:40:06.325Z,54.40
2018-03-22T18:42:35.057Z,63.80
2018-03-22T18:45:07.173Z,78.73
2018-03-22T18:47:35.564Z,70.93
2018-03-22T18:50:06.376Z,77.33
2018-03-22T18:52:34.660Z,63.47
2018-03-22T18:55:09.955Z,77.37
2018-03-22T18:57:38.249Z,55.63
2018-03-22T19:00:06.532Z,52.27
2018-03-22T19:02:34.867Z,47.93
2018-03-22T19:05:07.054Z,50.13
2018-03-22T19:07:35.365Z,49.17
2018-03-22T19:10:06.310Z,48.90
2018-03-22T19:12:34.625Z,44.00
2018-03-22T19:15:08.640Z,44.67
2018-03-22T19:17:37.133Z,52.47
2018-03-22T19:20:06.618Z,46.70
2018-03-22T19:22:35.026Z,62.47
2018-03-22T19:25:07.136Z,50.27
2018-03-22T19:27:35.436Z,51.37
2018-03-22T19:30:06.684Z,53.50
2018-03-22T19:32:34.990Z,45.93
2018-03-22T19:35:08.359Z,46.40
2018-03-22T19:37:36.683Z,49.77
2018-03-22T19:40:08.492Z,52.20
2018-03-22T19:42:36.801Z,53.03
2018-03-22T19:45:06.633Z,59.57
2018-03-22T19:47:34.937Z,51.90
2018-03-22T19:50:06.441Z,51.10
2018-03-22T19:52:34.742Z,60.87
2018-03-22T19:55:06.887Z,53.73
2018-03-22T19:57:35.201Z,63.43
2018-03-22T20:00:07.282Z,65.67
2018-03-22T20:02:35.600Z,60.47
2018-03-22T20:05:06.924Z,57.00
2018-03-22T20:07:35.256Z,54.93
2018-03-22T20:10:06.514Z,49.37
2018-03-22T20:12:35.525Z,51.87
2018-03-22T20:15:07.176Z,60.53
2018-03-22T20:17:35.472Z,59.03
2018-03-22T20:20:07.515Z,56.90
2018-03-22T20:22:35.839Z,52.87
2018-03-22T20:25:07.883Z,51.27
2018-03-22T20:27:36.192Z,51.13
2018-03-22T20:30:08.445Z,52.93
2018-03-22T20:32:36.848Z,52.93
2018-03-22T20:35:06.634Z,50.33
2018-03-22T20:37:34.951Z,48.87
2018-03-22T20:40:10.610Z,104.37
2018-03-22T20:42:38.934Z,88.33
2018-03-22T20:45:07.217Z,61.37
2018-03-22T20:47:35.525Z,53.77
2018-03-22T20:50:06.766Z,49.60
2018-03-22T20:52:35.065Z,49.50
2018-03-22T20:55:09.004Z,50.33
2018-03-22T20:57:37.318Z,56.53
2018-03-22T21:00:06.752Z,53.33
2018-03-22T21:02:35.065Z,51.13
2018-03-22T21:05:08.982Z,45.93
2018-03-22T21:07:37.284Z,55.20
2018-03-22T21:10:07.091Z,57.10
2018-03-22T21:12:35.382Z,58.27
2018-03-22T21:15:06.505Z,100.00
2018-03-22T21:17:34.811Z,58.33
2018-03-22T21:20:06.764Z,63.73
2018-03-22T21:22:35.077Z,59.47
2018-03-22T21:25:07.268Z,62.23
2018-03-22T21:27:35.609Z,59.03
2018-03-22T21:30:07.324Z,61.33
2018-03-22T21:32:35.652Z,65.37
2018-03-22T21:35:07.585Z,59.13
2018-03-22T21:37:35.894Z,57.73
2018-03-22T21:40:07.254Z,60.57
2018-03-22T21:42:35.535Z,60.47
2018-03-22T21:45:06.921Z,56.67
2018-03-22T21:47:35.491Z,56.80
2018-03-22T21:50:07.321Z,52.50
2018-03-22T21:52:43.400Z,53.70
2018-03-22T21:55:11.723Z,59.00
2018-03-22T21:57:40.016Z,59.27
2018-03-22T22:00:08.993Z,57.80
2018-03-22T22:02:37.440Z,56.03
2018-03-22T22:05:05.745Z,53.77
2018-03-22T22:07:34.047Z,59.70
2018-03-22T22:10:05.481Z,52.87
2018-03-22T22:12:34.061Z,57.37
2018-03-22T22:15:05.417Z,56.17
2018-03-22T22:17:33.697Z,53.23
2018-03-22T22:20:05.913Z,54.33
2018-03-22T22:22:34.318Z,49.03
2018-03-22T22:25:05.622Z,47.77
2018-03-22T22:27:33.917Z,57.90
2018-03-22T22:30:05.792Z,47.10
2018-03-22T22:32:34.105Z,47.67
2018-03-22T22:35:07.062Z,55.50
2018-03-22T22:37:35.356Z,53.90
2018-03-22T22:40:05.625Z,48.83
2018-03-22T22:42:34.168Z,46.20
2018-03-22T22:45:05.793Z,48.10
2018-03-22T22:47:34.115Z,53.03
2018-03-22T22:50:05.452Z,51.93
2018-03-22T22:52:33.805Z,52.07
2018-03-22T22:55:05.702Z,53.37
2018-03-22T22:57:33.973Z,57.53
2018-03-22T23:00:05.436Z,63.73
2018-03-22T23:02:33.737Z,53.40
2018-03-22T23:05:08.542Z,60.33
2018-03-22T23:07:36.872Z,59.53
2018-03-22T23:10:08.954Z,66.30
2018-03-22T23:12:37.249Z,58.90
2018-03-22T23:15:07.284Z,55.10
2018-03-22T23:17:35.589Z,55.90
2018-03-22T23:20:07.420Z,62.40
2018-03-22T23:22:35.748Z,56.53
2018-03-22T23:25:06.086Z,63.87
2018-03-22T23:27:34.516Z,65.57
2018-03-22T23:30:06.631Z,50.67
2018-03-22T23:32:35.172Z,50.70
2018-03-22T23:35:07.480Z,51.63
2018-03-22T23:37:35.771Z,53.67
2018-03-22T23:40:05.823Z,53.37
2018-03-22T23:42:34.073Z,55.23
2018-03-22T23:45:07.428Z,56.03
2018-03-22T23:47:35.713Z,56.77
2018-03-22T23:50:06.112Z,52.73
2018-03-22T23:52:34.390Z,55.93
2018-03-22T23:55:06.451Z,50.87
2018-03-22T23:57:34.746Z,52.23
